Time;durP1;ratioP1;P1;durP2;ratioP2;P2;SDS_P1;SDS_P2;PMS_P1;PMS_P2;Temp;Humidity;BMP_temperature;BMP_pressure;BME280_temperature;BME280_humidity;BME280_pressure;Samples;Min_cycle;Max_cycle;Signal;HPM_P1;HPM_P2
2022/04/12 00:01:22;;;;;;;2.95;2.10;;;20.50;48.00;;;;;;4975855;28;20188;-70
2022/04/12 00:03:48;;;;;;;2.15;1.90;;;20.50;48.10;;;;;;4991601;28;20244;-70
2022/04/12 00:06:14;;;;;;;1.90;1.80;;;20.50;48.00;;;;;;4991852;28;20216;-70
2022/04/12 00:08:39;;;;;;;2.30;2.10;;;20.50;48.10;;;;;;4991911;28;20189;-70
2022/04/12 00:11:05;;;;;;;2.38;2.03;;;20.50;48.00;;;;;;4992862;28;20184;-69
2022/04/12 00:13:31;;;;;;;2.22;1.98;;;20.50;48.00;;;;;;4991824;28;20212;-69
2022/04/12 00:15:57;;;;;;;3.65;2.28;;;20.50;48.10;;;;;;4975913;28;20254;-70
2022/04/12 00:21:07;;;;;;;2.55;2.20;;;20.50;48.00;;;;;;4996082;28;20219;-69
2022/04/12 00:23:33;;;;;;;2.88;2.63;;;20.50;47.90;;;;;;4995677;28;20223;-70
2022/04/12 00:25:58;;;;;;;2.08;1.90;;;20.50;47.90;;;;;;4979722;28;20192;-69
2022/04/12 00:28:24;;;;;;;2.75;2.55;;;20.50;47.90;;;;;;4997088;28;20177;-70
2022/04/12 00:30:51;;;;;;;2.50;1.90;;;20.50;47.90;;;;;;4995564;28;20196;-69
2022/04/12 00:33:17;;;;;;;2.28;2.10;;;20.50;47.90;;;;;;4979221;28;20208;-70
2022/04/12 00:35:43;;;;;;;2.08;1.83;;;20.50;48.00;;;;;;4995834;28;20189;-69
2022/04/12 00:38:17;;;;;;;1.90;1.65;;;20.50;47.90;;;;;;4995701;28;20192;-70
2022/04/12 00:40:45;;;;;;;2.40;1.80;;;20.50;48.00;;;;;;4995557;28;20172;-70
2022/04/12 00:43:11;;;;;;;1.65;1.55;;;20.50;48.00;;;;;;4996422;28;20299;-70
2022/04/12 00:45:37;;;;;;;2.63;1.90;;;20.50;48.10;;;;;;4995410;28;20285;-69
2022/04/12 00:48:03;;;;;;;1.92;1.75;;;20.50;48.00;;;;;;4995694;28;20187;-69
2022/04/12 00:50:29;;;;;;;1.77;1.67;;;20.50;48.00;;;;;;4995311;28;20687;-70
2022/04/12 00:52:56;;;;;;;2.70;1.63;;;20.50;48.00;;;;;;4995365;28;20209;-70
2022/04/12 00:55:23;;;;;;;1.55;1.45;;;20.50;48.10;;;;;;4995304;28;20188;-70
2022/04/12 00:57:49;;;;;;;1.63;1.52;;;20.50;48.00;;;;;;4995399;28;20211;-70
2022/04/12 01:00:18;;;;;;;1.85;1.75;;;20.50;48.10;;;;;;4995435;28;20231;-69
2022/04/12 01:02:44;;;;;;;1.98;1.83;;;20.50;48.00;;;;;;4994940;28;20224;-70
2022/04/12 01:05:11;;;;;;;2.03;1.92;;;20.50;48.10;;;;;;5011113;28;20220;-70
2022/04/12 01:07:37;;;;;;;2.33;2.13;;;20.50;48.00;;;;;;4998232;28;20191;-70
2022/04/12 01:10:06;;;;;;;1.80;1.70;;;20.50;48.00;;;;;;5015963;28;20180;-70
2022/04/12 01:12:41;;;;;;;2.67;2.05;;;20.50;47.90;;;;;;4998071;28;20211;-69
2022/04/12 01:15:22;;;;;;;2.47;1.95;;;20.50;47.90;;;;;;5014565;28;20246;-70
2022/04/12 01:17:50;;;;;;;1.73;1.52;;;20.40;47.80;;;;;;5014452;28;20195;-69
2022/04/12 01:20:19;;;;;;;1.77;1.60;;;20.50;48.00;;;;;;5014436;28;20286;-69
2022/04/12 01:22:53;;;;;;;1.60;1.50;;;20.50;48.00;;;;;;5014277;28;20746;-70
2022/04/12 01:25:20;;;;;;;1.48;1.38;;;20.50;48.10;;;;;;4997968;28;20223;-70
2022/04/12 01:27:47;;;;;;;1.65;1.55;;;20.50;48.00;;;;;;4997864;28;20192;-70
2022/04/12 01:30:12;;;;;;;1.50;1.40;;;20.50;48.00;;;;;;4997257;28;20187;-70
2022/04/12 01:32:39;;;;;;;1.80;1.55;;;20.50;48.00;;;;;;4997508;28;20208;-70
2022/04/12 01:35:05;;;;;;;1.60;1.50;;;20.50;48.10;;;;;;4997789;28;20195;-69
2022/04/12 01:37:31;;;;;;;1.42;1.33;;;20.50;48.10;;;;;;5014275;28;20195;-70
2022/04/12 01:39:57;;;;;;;1.95;1.52;;;20.50;48.00;;;;;;5014119;28;20188;-70
2022/04/12 01:42:22;;;;;;;1.60;1.50;;;20.40;48.00;;;;;;4997362;28;20223;-70
2022/04/12 01:44:48;;;;;;;1.90;1.52;;;20.40;48.00;;;;;;5015102;28;20227;-70
2022/04/12 01:47:15;;;;;;;1.67;1.58;;;20.50;48.00;;;;;;4997977;28;20195;-70
2022/04/12 01:49:41;;;;;;;2.00;1.80;;;20.50;48.00;;;;;;4997658;28;20185;-70
2022/04/12 01:52:07;;;;;;;2.00;1.77;;;20.50;48.00;;;;;;4997219;28;20196;-70
2022/04/12 01:54:34;;;;;;;1.77;1.67;;;20.50;48.00;;;;;;5014092;28;20258;-69
2022/04/12 01:56:59;;;;;;;1.92;1.83;;;20.40;47.90;;;;;;5014152;28;20238;-70
2022/04/12 01:59:25;;;;;;;2.25;1.90;;;20.40;47.90;;;;;;4981256;28;20176;-70
2022/04/12 02:01:51;;;;;;;1.95;1.80;;;20.40;47.90;;;;;;4997075;28;20239;-70
2022/04/12 02:04:17;;;;;;;1.48;1.30;;;20.40;47.90;;;;;;4980818;28;20219;-70
2022/04/12 02:06:43;;;;;;;1.70;1.58;;;20.40;47.90;;;;;;4997195;28;20216;-70
2022/04/12 02:09:08;;;;;;;1.52;1.42;;;20.40;47.90;;;;;;4981264;28;20231;-69
2022/04/12 02:11:34;;;;;;;1.60;1.50;;;20.40;47.90;;;;;;4996897;28;20184;-70
2022/04/12 02:14:00;;;;;;;1.52;1.42;;;20.40;48.50;;;;;;4980721;28;20687;-70
2022/04/12 02:16:26;;;;;;;1.35;1.25;;;20.40;48.00;;;;;;4997246;28;20192;-70
2022/04/12 02:18:51;;;;;;;1.77;1.60;;;20.40;48.00;;;;;;5013338;28;20195;-70
2022/04/12 02:21:17;;;;;;;1.50;1.30;;;20.40;48.00;;;;;;4996742;28;20279;-69
2022/04/12 02:23:43;;;;;;;1.35;1.25;;;20.40;48.00;;;;;;4996816;28;20254;-69
2022/04/12 02:26:08;;;;;;;2.75;1.50;;;20.40;48.00;;;;;;5013084;28;20188;-70
2022/04/12 02:28:34;;;;;;;1.60;1.50;;;20.40;48.00;;;;;;4980782;28;20176;-69
2022/04/12 02:31:00;;;;;;;1.38;1.27;;;20.40;48.00;;;;;;5009398;28;20287;-70
2022/04/12 02:33:26;;;;;;;1.63;1.52;;;20.40;48.00;;;;;;5012855;28;20215;-70
2022/04/12 02:35:52;;;;;;;1.17;1.13;;;20.40;48.00;;;;;;5013021;28;20188;-70
2022/04/12 02:38:18;;;;;;;1.58;1.48;;;20.40;48.00;;;;;;5014163;28;20676;-70
2022/04/12 02:40:43;;;;;;;1.58;1.48;;;20.40;48.00;;;;;;5012870;28;20223;-70
2022/04/12 02:43:09;;;;;;;1.88;1.77;;;20.40;48.00;;;;;;5011038;28;20224;-70
2022/04/12 02:45:35;;;;;;;1.85;1.50;;;20.40;48.00;;;;;;4999960;28;20198;-70
2022/04/12 02:48:00;;;;;;;1.80;1.70;;;20.40;48.00;;;;;;5012872;28;20188;-70
2022/04/12 02:50:27;;;;;;;6.60;4.40;;;20.40;48.00;;;;;;4996157;28;20648;-70
2022/04/12 02:52:53;;;;;;;2.17;1.98;;;20.40;47.90;;;;;;5011828;28;20302;-67
2022/04/12 02:55:19;;;;;;;2.88;2.50;;;20.40;47.90;;;;;;5012481;28;20282;-67
2022/04/12 02:57:44;;;;;;;4.22;2.50;;;20.40;47.90;;;;;;5012545;28;20192;-67
2022/04/12 03:00:10;;;;;;;2.65;2.03;;;20.40;47.80;;;;;;4996396;28;20188;-67
2022/04/12 03:02:36;;;;;;;2.20;2.00;;;20.40;47.80;;;;;;5027651;22;20292;-69
2022/04/12 03:05:02;;;;;;;2.20;2.00;;;20.40;47.90;;;;;;5032262;28;20211;-70
2022/04/12 03:07:28;;;;;;;2.08;1.88;;;20.40;47.80;;;;;;5033370;28;20202;-68
2022/04/12 03:09:54;;;;;;;2.10;1.90;;;20.40;48.00;;;;;;5032029;28;20281;-69
2022/04/12 03:12:19;;;;;;;2.10;1.90;;;20.40;47.90;;;;;;5030372;28;20208;-69
2022/04/12 03:14:45;;;;;;;1.60;1.50;;;20.40;47.90;;;;;;5013415;28;20192;-69
2022/04/12 03:17:11;;;;;;;2.67;1.90;;;20.30;47.80;;;;;;5012487;28;20203;-69
2022/04/12 03:19:37;;;;;;;1.77;1.67;;;20.40;48.00;;;;;;5012335;28;20256;-69
2022/04/12 03:22:03;;;;;;;1.73;1.63;;;20.40;48.00;;;;;;5011889;28;20208;-69
2022/04/12 03:24:30;;;;;;;2.65;1.75;;;20.40;48.00;;;;;;5028422;28;20266;-69
2022/04/12 03:26:57;;;;;;;1.80;1.67;;;20.40;48.00;;;;;;5012064;28;20231;-69
2022/04/12 03:29:25;;;;;;;3.08;1.60;;;20.30;47.90;;;;;;5012030;28;20211;-69
2022/04/12 03:31:51;;;;;;;1.60;1.50;;;20.40;48.00;;;;;;4995749;28;20227;-69
2022/04/12 03:34:18;;;;;;;1.83;1.70;;;20.40;48.00;;;;;;5012096;28;20243;-69
2022/04/12 03:36:44;;;;;;;1.98;1.70;;;20.40;48.00;;;;;;5028296;28;20192;-68
2022/04/12 03:39:17;;;;;;;2.10;1.90;;;20.40;48.00;;;;;;5011958;28;20176;-69
2022/04/12 03:41:46;;;;;;;2.30;1.90;;;20.30;47.80;;;;;;4995371;28;20624;-69
2022/04/12 03:44:14;;;;;;;3.05;2.35;;;20.30;47.80;;;;;;4995502;28;20270;-69
2022/04/12 03:46:40;;;;;;;2.20;2.00;;;20.40;47.90;;;;;;5012965;28;20176;-69
2022/04/12 03:49:06;;;;;;;2.28;2.08;;;20.40;47.90;;;;;;5013234;28;20238;-69
2022/04/12 03:51:32;;;;;;;2.30;2.10;;;20.40;47.80;;;;;;5011601;28;20172;-69
2022/04/12 03:53:58;;;;;;;2.38;2.17;;;20.30;47.80;;;;;;5027603;28;20721;-69
2022/04/12 03:56:24;;;;;;;2.00;1.90;;;20.30;47.70;;;;;;5011531;28;20188;-69
2022/04/12 03:58:50;;;;;;;1.95;1.85;;;20.30;47.70;;;;;;4995383;28;20188;-69
2022/04/12 04:01:16;;;;;;;1.85;1.70;;;20.30;47.70;;;;;;5011496;28;20329;-71
2022/04/12 04:03:41;;;;;;;2.17;1.90;;;20.30;47.80;;;;;;5027832;28;20243;-69
2022/04/12 04:06:07;;;;;;;1.90;1.80;;;20.30;47.80;;;;;;4995396;28;20190;-69
2022/04/12 04:08:33;;;;;;;1.73;1.63;;;20.30;47.70;;;;;;5012707;28;20180;-69
2022/04/12 04:10:59;;;;;;;1.92;1.77;;;20.30;47.80;;;;;;5012667;28;20190;-69
2022/04/12 04:13:30;;;;;;;2.55;1.60;;;20.30;47.80;;;;;;5011273;28;20212;-69
2022/04/12 04:15:56;;;;;;;1.85;1.67;;;20.30;47.80;;;;;;5012575;28;20168;-69
2022/04/12 04:18:22;;;;;;;2.13;1.95;;;20.30;47.80;;;;;;5027857;28;20662;-69
2022/04/12 04:20:48;;;;;;;1.70;1.60;;;20.30;48.50;;;;;;5011416;28;20274;-69
2022/04/12 04:23:14;;;;;;;1.77;1.67;;;20.30;47.80;;;;;;4994615;28;20218;-69
2022/04/12 04:25:40;;;;;;;1.77;1.67;;;20.30;47.80;;;;;;4995201;28;20179;-69
2022/04/12 04:28:10;;;;;;;1.73;1.63;;;20.30;47.80;;;;;;5011352;28;20188;-69
2022/04/12 04:30:38;;;;;;;1.92;1.73;;;20.30;47.80;;;;;;5014506;28;20183;-69
2022/04/12 04:33:07;;;;;;;2.22;2.03;;;20.30;47.80;;;;;;5030622;28;20203;-69
2022/04/12 04:35:33;;;;;;;2.30;2.10;;;20.30;47.70;;;;;;5030913;28;20191;-69
2022/04/12 04:37:58;;;;;;;2.40;2.20;;;20.30;47.70;;;;;;5031244;28;20278;-69
2022/04/12 04:40:24;;;;;;;2.25;2.05;;;20.30;47.70;;;;;;5032049;28;20179;-69
2022/04/12 04:42:52;;;;;;;2.15;1.98;;;20.30;47.70;;;;;;5040868;28;20308;-69
2022/04/12 04:45:18;;;;;;;2.17;1.98;;;20.30;47.70;;;;;;5021799;28;20295;-69
2022/04/12 04:47:58;;;;;;;1.80;1.70;;;20.30;47.60;;;;;;5025361;28;20188;-69
2022/04/12 04:50:27;;;;;;;1.65;1.55;;;20.30;47.70;;;;;;5027521;28;20191;-69
2022/04/12 04:52:53;;;;;;;2.00;1.90;;;20.30;47.80;;;;;;5027457;28;20287;-68
2022/04/12 04:55:19;;;;;;;1.83;1.50;;;20.30;47.80;;;;;;5011464;28;20192;-69
2022/04/12 04:57:47;;;;;;;1.70;1.30;;;20.30;47.80;;;;;;5027442;28;20192;-69
2022/04/12 05:00:18;;;;;;;2.63;1.77;;;20.30;47.80;;;;;;5007779;28;20185;-69
2022/04/12 05:02:50;;;;;;;1.65;1.55;;;20.30;47.80;;;;;;5007712;28;20216;-69
2022/04/12 05:05:17;;;;;;;2.35;1.60;;;20.30;48.40;;;;;;4994040;28;20213;-69
2022/04/12 05:07:47;;;;;;;1.90;1.80;;;20.30;47.90;;;;;;4995371;28;20264;-69
2022/04/12 05:10:16;;;;;;;1.60;1.50;;;20.30;47.80;;;;;;5011696;28;20181;-69
2022/04/12 05:12:41;;;;;;;1.90;1.75;;;20.30;47.80;;;;;;4994792;28;20220;-70
2022/04/12 05:15:08;;;;;;;2.47;2.22;;;20.30;47.70;;;;;;4994960;28;20193;-70
2022/04/12 05:17:34;;;;;;;2.63;2.42;;;20.30;47.70;;;;;;5011478;28;20197;-70
2022/04/12 05:20:00;;;;;;;3.50;3.20;;;20.30;47.70;;;;;;4995199;28;20200;-70
2022/04/12 05:22:26;;;;;;;3.92;2.92;;;20.30;47.70;;;;;;4995735;28;20218;-70
2022/04/12 05:24:53;;;;;;;3.75;3.33;;;20.30;47.70;;;;;;4994359;28;20216;-71
2022/04/12 05:27:20;;;;;;;3.90;3.50;;;20.30;47.60;;;;;;4993094;28;20181;-69
2022/04/12 05:29:46;;;;;;;4.80;4.07;;;20.30;47.50;;;;;;4995413;28;20181;-70
2022/04/12 05:32:13;;;;;;;3.30;3.00;;;20.20;47.50;;;;;;4993970;28;20207;-71
2022/04/12 05:34:43;;;;;;;2.80;2.40;;;20.30;47.60;;;;;;4977704;28;20204;-70
2022/04/12 05:37:09;;;;;;;3.88;2.40;;;20.20;47.60;;;;;;4978056;28;20262;-70
2022/04/12 05:39:35;;;;;;;2.42;2.22;;;20.30;47.70;;;;;;4994017;28;20185;-70
2022/04/12 05:42:02;;;;;;;3.17;2.50;;;20.30;47.70;;;;;;4993815;28;20315;-70
2022/04/12 05:44:29;;;;;;;2.95;2.70;;;20.30;47.70;;;;;;4994967;28;20271;-70
2022/04/12 05:46:55;;;;;;;3.10;2.35;;;20.30;47.70;;;;;;4993720;28;20227;-71
2022/04/12 05:49:21;;;;;;;2.38;2.17;;;20.30;47.70;;;;;;4993625;28;20184;-71
2022/04/12 05:51:48;;;;;;;2.42;2.20;;;20.30;47.70;;;;;;4994893;28;20235;-71
2022/04/12 05:54:13;;;;;;;2.88;2.53;;;20.30;47.70;;;;;;4995019;28;20267;-70
2022/04/12 05:56:39;;;;;;;2.47;2.28;;;20.30;47.70;;;;;;4993622;28;20189;-71
2022/04/12 05:59:06;;;;;;;3.03;2.33;;;20.30;47.70;;;;;;4993575;28;20246;-71
2022/04/12 06:01:32;;;;;;;2.13;2.03;;;20.30;47.70;;;;;;4994556;28;20181;-70
2022/04/12 06:03:58;;;;;;;2.38;2.17;;;20.40;47.80;;;;;;5009222;28;20220;-70
2022/04/12 06:06:23;;;;;;;2.60;2.40;;;20.30;47.70;;;;;;4993654;28;20192;-71
2022/04/12 06:08:50;;;;;;;3.15;2.20;;;20.40;47.80;;;;;;4993546;28;20247;-70
2022/04/12 06:11:16;;;;;;;2.90;2.60;;;20.40;47.80;;;;;;4993368;28;20180;-71
2022/04/12 06:13:41;;;;;;;2.80;2.60;;;20.40;47.80;;;;;;4994328;28;20212;-71
2022/04/12 06:16:07;;;;;;;3.03;2.38;;;20.40;47.80;;;;;;4992861;28;20192;-71
2022/04/12 06:18:33;;;;;;;3.15;2.38;;;20.40;47.80;;;;;;4993356;28;20311;-70
2022/04/12 06:20:59;;;;;;;2.63;2.42;;;20.40;47.80;;;;;;5009801;28;20192;-71
2022/04/12 06:23:24;;;;;;;2.40;2.20;;;20.40;47.80;;;;;;4994079;28;20569;-71
2022/04/12 06:25:50;;;;;;;2.10;2.00;;;20.40;47.80;;;;;;5031245;28;20184;-70
2022/04/12 06:28:16;;;;;;;2.85;2.40;;;20.40;47.70;;;;;;5013081;28;20180;-69
2022/04/12 06:30:43;;;;;;;2.13;1.92;;;20.40;47.80;;;;;;5029044;28;20217;-71
2022/04/12 06:33:09;;;;;;;1.80;1.70;;;20.40;47.80;;;;;;5028982;28;20208;-70
2022/04/12 06:35:35;;;;;;;1.95;1.75;;;20.40;47.80;;;;;;5029033;28;20195;-72
2022/04/12 06:38:02;;;;;;;2.03;1.92;;;20.50;47.80;;;;;;5013816;28;20238;-71
2022/04/12 06:40:29;;;;;;;2.85;2.05;;;20.50;47.80;;;;;;5013708;28;20176;-70
2022/04/12 06:42:55;;;;;;;2.10;1.92;;;20.50;47.80;;;;;;5012288;28;20338;-71
2022/04/12 06:45:21;;;;;;;2.30;2.13;;;20.50;47.70;;;;;;5028854;28;20287;-71
2022/04/12 06:47:58;;;;;;;2.72;2.00;;;20.50;47.70;;;;;;5028923;28;20195;-70
2022/04/12 06:50:26;;;;;;;2.38;1.85;;;20.50;47.70;;;;;;5028903;28;20237;-71
2022/04/12 06:52:56;;;;;;;2.63;2.03;;;20.60;47.80;;;;;;5012407;28;20279;-71
2022/04/12 06:55:23;;;;;;;1.73;1.63;;;20.60;47.80;;;;;;5029374;28;20192;-71
2022/04/12 06:57:49;;;;;;;2.67;1.73;;;20.60;47.70;;;;;;5013467;28;20197;-70
2022/04/12 07:00:17;;;;;;;2.13;1.92;;;20.60;47.70;;;;;;5012575;28;20579;-70
2022/04/12 07:02:43;;;;;;;2.28;1.70;;;20.60;47.60;;;;;;5028165;28;20249;-71
2022/04/12 07:05:10;;;;;;;2.15;2.00;;;20.60;47.60;;;;;;5013064;28;20251;-71
2022/04/12 07:07:37;;;;;;;2.40;2.20;;;20.60;47.50;;;;;;5011512;28;20212;-70
2022/04/12 07:10:12;;;;;;;1.95;1.80;;;20.70;47.60;;;;;;5028576;28;20180;-70
2022/04/12 07:12:40;;;;;;;1.98;1.88;;;20.70;47.60;;;;;;5011663;28;20219;-70
2022/04/12 07:15:07;;;;;;;1.90;1.80;;;20.70;47.60;;;;;;5028190;28;20195;-71
2022/04/12 07:17:33;;;;;;;1.92;1.83;;;20.70;47.50;;;;;;5028148;28;20250;-71
2022/04/12 07:19:59;;;;;;;2.05;1.92;;;20.70;47.50;;;;;;5011715;28;20192;-71
2022/04/12 07:22:25;;;;;;;2.17;1.95;;;20.70;47.40;;;;;;5012661;28;20207;-68
2022/04/12 07:24:51;;;;;;;3.38;2.28;;;20.70;47.40;;;;;;5028360;28;20247;-70
2022/04/12 07:27:17;;;;;;;1.55;1.45;;;20.80;47.50;;;;;;4994660;28;20191;-71
2022/04/12 07:29:43;;;;;;;2.10;1.90;;;20.80;47.40;;;;;;4995202;28;20188;-70
2022/04/12 07:32:09;;;;;;;2.35;1.77;;;20.80;47.30;;;;;;5011249;28;20224;-71
2022/04/12 07:34:35;;;;;;;2.40;1.80;;;20.80;47.40;;;;;;5011491;28;20192;-71
2022/04/12 07:37:01;;;;;;;2.67;1.70;;;20.80;47.40;;;;;;5011402;28;20187;-71
2022/04/12 07:39:26;;;;;;;2.28;1.70;;;20.80;47.30;;;;;;5012658;28;20267;-71
2022/04/12 07:41:53;;;;;;;1.70;1.60;;;20.90;47.40;;;;;;4994800;28;20196;-70
2022/04/12 07:44:20;;;;;;;2.33;1.90;;;20.80;47.40;;;;;;5011225;28;20744;-71
2022/04/12 07:46:47;;;;;;;1.70;1.55;;;20.80;47.40;;;;;;5011208;28;20223;-70
2022/04/12 07:49:13;;;;;;;2.63;2.10;;;20.80;47.40;;;;;;4994943;28;20215;-70
2022/04/12 07:51:41;;;;;;;2.15;1.75;;;20.80;47.40;;;;;;5011043;28;20211;-70
2022/04/12 07:54:07;;;;;;;2.00;1.83;;;20.90;47.50;;;;;;4994817;28;20223;-70
2022/04/12 07:56:34;;;;;;;1.90;1.80;;;20.90;47.50;;;;;;5027743;28;20222;-71
2022/04/12 07:59:01;;;;;;;2.42;1.67;;;20.90;47.50;;;;;;4994766;28;20188;-71
2022/04/12 08:01:27;;;;;;;1.67;1.58;;;20.90;47.50;;;;;;5012299;28;20214;-69
2022/04/12 08:03:53;;;;;;;1.85;1.75;;;20.90;47.50;;;;;;5011836;28;20216;-70
2022/04/12 08:06:19;;;;;;;1.88;1.73;;;20.90;47.60;;;;;;5011037;28;20188;-71
2022/04/12 08:08:45;;;;;;;1.70;1.60;;;20.90;47.60;;;;;;5027572;28;20569;-71
2022/04/12 08:11:11;;;;;;;1.58;1.45;;;20.90;47.60;;;;;;5012621;28;20176;-69
2022/04/12 08:13:37;;;;;;;2.15;1.95;;;20.90;47.50;;;;;;5010939;28;20287;-70
2022/04/12 08:16:04;;;;;;;2.00;1.80;;;20.90;47.60;;;;;;5027407;28;20192;-70
2022/04/12 08:18:30;;;;;;;2.10;1.80;;;20.90;47.50;;;;;;5010763;28;20674;-70
2022/04/12 08:20:56;;;;;;;1.77;1.67;;;20.90;47.50;;;;;;5012061;28;20270;-71
2022/04/12 08:23:23;;;;;;;1.90;1.80;;;21.00;47.60;;;;;;5011836;28;20235;-69
2022/04/12 08:25:50;;;;;;;1.95;1.83;;;20.90;47.50;;;;;;5011059;28;20610;-70
2022/04/12 08:28:16;;;;;;;1.88;1.60;;;20.90;47.50;;;;;;5016502;28;20229;-70
2022/04/12 08:30:42;;;;;;;1.60;1.50;;;21.00;47.50;;;;;;5030471;28;20191;-70
2022/04/12 08:33:08;;;;;;;1.90;1.75;;;20.90;47.50;;;;;;5046827;28;20218;-70
2022/04/12 08:35:34;;;;;;;2.67;1.80;;;21.00;47.50;;;;;;5047149;28;20183;-70
2022/04/12 08:38:00;;;;;;;2.17;1.98;;;21.00;47.60;;;;;;5031858;28;20187;-71
2022/04/12 08:40:26;;;;;;;1.75;1.65;;;21.00;47.50;;;;;;5035412;28;20262;-71
2022/04/12 08:42:54;;;;;;;2.17;2.00;;;21.00;47.50;;;;;;5050827;28;20203;-71
2022/04/12 08:45:21;;;;;;;1.67;1.58;;;21.00;47.40;;;;;;5034151;28;20211;-71
2022/04/12 08:47:46;;;;;;;1.70;1.60;;;21.00;47.50;;;;;;5034368;28;20634;-70
2022/04/12 08:50:12;;;;;;;1.70;1.60;;;21.00;47.40;;;;;;5034692;28;20278;-70
2022/04/12 08:52:39;;;;;;;2.25;1.70;;;21.00;47.50;;;;;;5050872;28;20238;-71
2022/04/12 08:55:07;;;;;;;1.77;1.67;;;21.00;47.50;;;;;;5050911;28;20225;-70
2022/04/12 08:57:33;;;;;;;1.90;1.80;;;21.00;47.50;;;;;;5034365;28;20187;-71
2022/04/12 08:59:59;;;;;;;1.73;1.63;;;21.00;47.50;;;;;;5050975;28;20187;-70
2022/04/12 09:02:25;;;;;;;1.58;1.48;;;21.00;47.60;;;;;;5031804;28;20238;-71
2022/04/12 09:04:51;;;;;;;1.83;1.73;;;21.00;47.50;;;;;;5062731;23;20720;-69
2022/04/12 09:07:17;;;;;;;1.83;1.63;;;21.00;47.60;;;;;;5054319;28;20190;-70
2022/04/12 09:09:43;;;;;;;2.08;1.88;;;21.00;47.60;;;;;;5053496;28;20167;-69
2022/04/12 09:12:17;;;;;;;1.70;1.60;;;21.00;47.60;;;;;;5054158;28;20179;-70
2022/04/12 09:14:52;;;;;;;1.77;1.67;;;21.10;47.70;;;;;;5043227;28;20237;-69
2022/04/12 09:17:35;;;;;;;1.88;1.70;;;21.10;47.70;;;;;;5040815;28;20286;-70
2022/04/12 09:20:04;;;;;;;1.70;1.60;;;21.10;47.60;;;;;;5015654;28;20187;-70
2022/04/12 09:22:34;;;;;;;2.22;1.70;;;21.10;47.50;;;;;;5030746;28;20219;-70
2022/04/12 09:25:03;;;;;;;1.58;1.48;;;21.10;47.60;;;;;;5014172;28;20220;-69
2022/04/12 09:27:32;;;;;;;1.73;1.63;;;21.00;47.50;;;;;;5014255;28;20190;-70
2022/04/12 09:30:01;;;;;;;1.80;1.70;;;21.10;47.70;;;;;;4998149;28;20192;-69
2022/04/12 09:32:30;;;;;;;1.67;1.58;;;21.10;47.70;;;;;;5014498;28;20184;-70
2022/04/12 09:34:57;;;;;;;1.58;1.48;;;21.00;47.60;;;;;;5014332;28;20211;-70
2022/04/12 09:37:28;;;;;;;1.52;1.42;;;21.10;47.70;;;;;;5014133;28;20192;-69
2022/04/12 09:39:59;;;;;;;1.73;1.42;;;21.00;47.60;;;;;;5014496;28;20298;-69
2022/04/12 09:42:51;;;;;;;1.92;1.55;;;21.00;47.60;;;;;;4997531;28;20191;-70
2022/04/12 09:45:30;;;;;;;1.63;1.50;;;21.00;47.80;;;;;;5030260;28;20220;-70
2022/04/12 09:48:05;;;;;;;1.67;1.58;;;21.10;47.70;;;;;;5013948;28;20194;-70
2022/04/12 09:50:32;;;;;;;1.50;1.40;;;21.10;48.00;;;;;;5013542;28;20172;-69
2022/04/12 09:53:00;;;;;;;1.60;1.42;;;21.10;47.70;;;;;;5013573;28;20176;-70
2022/04/12 09:55:38;;;;;;;1.60;1.50;;;21.10;47.80;;;;;;5014796;28;20211;-69
2022/04/12 09:58:16;;;;;;;1.40;1.30;;;21.10;47.90;;;;;;4997736;28;20182;-70
2022/04/12 10:00:47;;;;;;;1.40;1.30;;;21.10;47.80;;;;;;5013718;28;20211;-70
2022/04/12 10:03:18;;;;;;;1.42;1.30;;;21.10;47.90;;;;;;5016465;28;20180;-70
2022/04/12 10:05:45;;;;;;;1.40;1.30;;;21.10;47.90;;;;;;5026158;28;20238;-69
2022/04/12 10:08:15;;;;;;;1.30;1.20;;;21.10;47.90;;;;;;5064349;28;20194;-69
2022/04/12 10:10:45;;;;;;;1.50;1.40;;;21.10;47.90;;;;;;5043149;28;20184;-70
2022/04/12 10:13:16;;;;;;;2.13;1.45;;;21.10;47.90;;;;;;5049503;28;20183;-69
2022/04/12 10:15:43;;;;;;;1.75;1.60;;;21.10;47.90;;;;;;5049909;28;20210;-70
2022/04/12 10:18:12;;;;;;;1.70;1.60;;;21.00;47.80;;;;;;5049922;28;20171;-69
2022/04/12 10:20:39;;;;;;;1.30;1.23;;;21.10;47.90;;;;;;5030235;28;20203;-70
2022/04/12 10:23:06;;;;;;;1.40;1.30;;;21.10;47.90;;;;;;5049552;28;20182;-70
2022/04/12 10:25:33;;;;;;;2.15;1.63;;;21.10;47.90;;;;;;5065518;28;20206;-69
2022/04/12 10:28:04;;;;;;;1.90;1.50;;;21.10;48.00;;;;;;5024608;28;20179;-69
2022/04/12 10:30:31;;;;;;;1.85;1.70;;;21.10;47.90;;;;;;5043207;28;20191;-70
2022/04/12 10:33:08;;;;;;;1.83;1.45;;;21.10;48.00;;;;;;5060396;28;20183;-70
2022/04/12 10:35:46;;;;;;;1.70;1.60;;;21.10;48.00;;;;;;5048928;28;20681;-70
2022/04/12 10:38:18;;;;;;;2.45;1.25;;;21.10;48.40;;;;;;5012986;28;20191;-69
2022/04/12 10:40:59;;;;;;;2.65;1.67;;;21.10;48.10;;;;;;5037514;28;20237;-70
2022/04/12 10:43:34;;;;;;;2.13;1.50;;;21.10;48.00;;;;;;5050876;28;20187;-67
2022/04/12 10:46:06;;;;;;;1.70;1.60;;;21.10;48.00;;;;;;5012844;28;20187;-70
2022/04/12 10:48:33;;;;;;;1.50;1.40;;;21.10;48.10;;;;;;5013071;28;20177;-69
2022/04/12 10:51:02;;;;;;;1.70;1.60;;;21.10;48.10;;;;;;5043667;28;20191;-69
2022/04/12 10:53:37;;;;;;;1.50;1.40;;;21.10;48.10;;;;;;5036713;28;20273;-69
2022/04/12 10:56:14;;;;;;;1.75;1.65;;;21.10;47.90;;;;;;5049039;28;20225;-69
2022/04/12 10:58:43;;;;;;;2.08;1.58;;;21.10;48.00;;;;;;5049368;28;20197;-70
2022/04/12 11:01:28;;;;;;;1.67;1.58;;;21.10;47.80;;;;;;5049212;28;20214;-71
2022/04/12 11:03:55;;;;;;;1.70;1.40;;;21.10;48.10;;;;;;5047947;28;20215;-70
2022/04/12 11:06:30;;;;;;;1.58;1.38;;;21.10;48.10;;;;;;5029382;28;20184;-70
2022/04/12 11:09:09;;;;;;;1.92;1.30;;;21.10;48.00;;;;;;5029180;28;20172;-70
2022/04/12 11:11:45;;;;;;;1.90;1.60;;;21.10;48.10;;;;;;5028797;28;20187;-70
2022/04/12 11:14:25;;;;;;;1.60;1.50;;;21.10;48.10;;;;;;5012263;28;20298;-69
2022/04/12 11:16:58;;;;;;;1.52;1.35;;;21.10;48.00;;;;;;4996187;28;20194;-70
2022/04/12 11:19:25;;;;;;;1.50;1.30;;;21.10;48.20;;;;;;5012594;28;20238;-70
2022/04/12 11:21:57;;;;;;;2.67;1.70;;;21.10;48.00;;;;;;5012462;28;20188;-68
2022/04/12 11:24:25;;;;;;;7.63;1.30;;;21.20;48.50;;;;;;5011974;28;20208;-70
2022/04/12 11:27:11;;;;;;;2.00;1.30;;;21.20;48.20;;;;;;5028328;28;20223;-71
2022/04/12 11:29:39;;;;;;;1.70;1.30;;;21.20;48.30;;;;;;5012216;28;20194;-70
2022/04/12 11:32:07;;;;;;;1.50;1.40;;;21.20;48.30;;;;;;5027707;28;20187;-69
2022/04/12 11:34:37;;;;;;;1.55;1.42;;;21.20;48.40;;;;;;5028315;28;20200;-70
2022/04/12 11:37:11;;;;;;;1.42;1.33;;;21.20;48.50;;;;;;5012302;28;20196;-69
2022/04/12 11:39:44;;;;;;;1.80;1.70;;;21.20;48.40;;;;;;5012159;28;20238;-70
2022/04/12 11:42:14;;;;;;;1.80;1.40;;;21.10;48.30;;;;;;5024838;28;20245;-68
2022/04/12 11:44:54;;;;;;;1.30;1.20;;;21.20;48.40;;;;;;5034011;28;20214;-69
2022/04/12 11:47:27;;;;;;;1.50;1.40;;;21.20;48.20;;;;;;5048485;28;20183;-70
2022/04/12 11:49:53;;;;;;;1.52;1.40;;;21.20;48.20;;;;;;5031348;28;20286;-70
2022/04/12 11:52:19;;;;;;;2.90;1.58;;;21.20;48.10;;;;;;5032685;28;20646;-70
2022/04/12 11:54:50;;;;;;;2.55;1.60;;;21.20;47.90;;;;;;5064570;28;20218;-70
2022/04/12 11:57:23;;;;;;;2.72;2.17;;;21.20;48.10;;;;;;5064691;28;20176;-70
2022/04/12 11:59:54;;;;;;;1.63;1.50;;;21.20;48.30;;;;;;5064916;28;20175;-70
2022/04/12 12:02:31;;;;;;;1.50;1.40;;;21.20;48.30;;;;;;5053651;28;20183;-70
2022/04/12 12:05:05;;;;;;;1.90;1.40;;;21.20;48.50;;;;;;5037413;28;20305;-70
2022/04/12 12:07:35;;;;;;;1.95;1.70;;;21.20;48.40;;;;;;5032820;28;20202;-70
2022/04/12 12:10:07;;;;;;;3.15;1.70;;;21.20;48.20;;;;;;5064500;28;20704;-68
2022/04/12 12:12:46;;;;;;;1.55;1.38;;;21.20;48.40;;;;;;5031070;28;20176;-70
2022/04/12 12:15:22;;;;;;;2.13;1.40;;;21.20;48.20;;;;;;5027508;28;20290;-69
2022/04/12 12:17:51;;;;;;;1.83;1.60;;;21.20;48.20;;;;;;5028269;28;20198;-69
2022/04/12 12:20:19;;;;;;;1.63;1.50;;;21.20;48.00;;;;;;5011633;28;20187;-70
2022/04/12 12:22:50;;;;;;;2.00;1.50;;;21.30;48.20;;;;;;5011307;28;20223;-70
2022/04/12 12:25:19;;;;;;;1.92;1.73;;;21.20;48.00;;;;;;5011366;28;20216;-70
2022/04/12 12:27:53;;;;;;;1.95;1.73;;;21.20;48.00;;;;;;5011264;28;20226;-70
2022/04/12 12:30:25;;;;;;;2.13;1.50;;;21.30;48.40;;;;;;5011670;28;20175;-70
2022/04/12 12:32:54;;;;;;;2.17;1.65;;;21.30;48.20;;;;;;5043035;28;20182;-71
2022/04/12 12:35:24;;;;;;;1.70;1.60;;;21.20;48.00;;;;;;5024284;28;20196;-69
2022/04/12 12:37:50;;;;;;;1.80;1.70;;;21.20;48.30;;;;;;5011282;28;20674;-70
2022/04/12 12:40:27;;;;;;;2.13;1.70;;;21.30;48.50;;;;;;5012315;28;20199;-70
2022/04/12 12:42:54;;;;;;;2.53;1.63;;;21.20;48.30;;;;;;5029817;28;20179;-70
2022/04/12 12:45:25;;;;;;;1.80;1.50;;;21.30;48.30;;;;;;5030693;28;20221;-70
2022/04/12 12:47:58;;;;;;;1.70;1.58;;;21.30;48.40;;;;;;5047466;28;20242;-69
2022/04/12 12:50:27;;;;;;;1.77;1.58;;;21.30;47.80;;;;;;5032129;28;20217;-71
2022/04/12 12:53:03;;;;;;;1.45;1.30;;;21.30;48.00;;;;;;5047534;28;20183;-70
2022/04/12 12:55:32;;;;;;;2.53;1.67;;;21.30;48.20;;;;;;5047126;28;20210;-71